ES-0003 weather

Banco de España Helipad
Madrid, Madrid, Spain

Public forecast

Using degrees Celsius for public forecast. Weather courtesy of forecast.io.

Closest aviation weather report (METAR) to Banco de España Helipad

Closest report is Adolfo Suárez Madrid–Barajas Airport, 6.9 nm (12.7 km) ENE. Retrieved 2019/10/18 15:30 UTC (23 minutes ago):

LEMD 181530Z 22012G24KT 9999 BKN035 20/14 Q1015 NOSIG

Closest aviation forecast (TAF) to Banco de España Helipad

Closest forecast is Adolfo Suárez Madrid–Barajas Airport, 6.9 nm (12.7 km) ENE. Retrieved 2019/10/18 12:28 UTC (3 hours ago):

TAF LEMD 181100Z 1812/1918 23010KT 9999 FEW015 SCT025 TX21/1815Z TN11/1906Z PROB30 TEMPO 1812/1818 24015G25KT TEMPO 1902/1910 2000 BR BKN008 PROB30 TEMPO 1903/1908 1000 BCFG BKN003 PROB40 TEMPO 1914/1918 20015G27KT